createdAt,value
2022-07-30T00:01:14.455Z,68.77
2022-07-30T00:03:41.136Z,70.45
2022-07-30T00:06:07.755Z,68.63
2022-07-30T00:08:34.732Z,69.03
2022-07-30T00:11:01.608Z,68.18
2022-07-30T00:13:28.144Z,68.45
2022-07-30T00:15:54.729Z,68.84
2022-07-30T00:18:21.814Z,69.15
2022-07-30T00:20:49.338Z,68.73
2022-07-30T00:23:15.885Z,68.99
2022-07-30T00:25:42.576Z,68.90
2022-07-30T00:28:09.065Z,68.73
2022-07-30T00:30:35.665Z,69.71
2022-07-30T00:33:02.470Z,69.22
2022-07-30T00:35:29.136Z,69.50
2022-07-30T00:37:55.949Z,68.35
2022-07-30T00:40:22.773Z,69.76
2022-07-30T00:42:49.392Z,70.21
2022-07-30T00:45:17.691Z,69.82
2022-07-30T00:47:44.745Z,70.66
2022-07-30T00:50:13.134Z,71.39
2022-07-30T00:52:41.102Z,71.57
2022-07-30T00:55:10.309Z,71.48
2022-07-30T00:57:37.130Z,70.74
2022-07-30T01:00:09.075Z,71.54
2022-07-30T01:02:36.022Z,71.88
2022-07-30T01:05:02.668Z,71.06
2022-07-30T01:07:29.182Z,70.98
2022-07-30T01:09:55.966Z,70.43
2022-07-30T01:12:25.252Z,70.94
2022-07-30T01:14:52.572Z,70.68
2022-07-30T01:17:19.526Z,71.01
2022-07-30T01:19:55.870Z,71.03
2022-07-30T01:22:35.102Z,71.47
2022-07-30T01:25:05.948Z,73.06
2022-07-30T01:28:01.331Z,71.49
2022-07-30T01:30:32.712Z,72.92
2022-07-30T01:33:03.277Z,72.81
2022-07-30T01:35:32.558Z,73.12
2022-07-30T01:38:01.033Z,73.87
2022-07-30T01:40:28.902Z,73.75
2022-07-30T01:42:58.436Z,72.66
2022-07-30T01:45:28.208Z,72.00
2022-07-30T01:47:57.429Z,72.27
2022-07-30T01:50:23.987Z,72.07
2022-07-30T01:52:54.477Z,72.86
2022-07-30T01:55:34.339Z,72.70
2022-07-30T01:58:03.408Z,73.30
2022-07-30T02:00:32.953Z,73.69
2022-07-30T02:02:59.600Z,73.27
2022-07-30T02:05:27.945Z,73.21
2022-07-30T02:08:03.222Z,73.95
2022-07-30T02:10:39.473Z,72.61
2022-07-30T02:13:08.049Z,73.27
2022-07-30T02:15:54.938Z,72.63
2022-07-30T02:18:43.473Z,72.55
2022-07-30T02:21:13.169Z,73.04
2022-07-30T02:23:44.049Z,73.41
2022-07-30T02:26:18.565Z,73.00
2022-07-30T02:28:49.598Z,72.50
2022-07-30T02:31:23.386Z,73.04
2022-07-30T02:33:53.434Z,72.55
2022-07-30T02:36:20.778Z,72.10
2022-07-30T02:38:50.805Z,72.30
2022-07-30T02:41:19.196Z,72.56
2022-07-30T02:43:48.205Z,72.35
2022-07-30T02:46:18.160Z,72.72
2022-07-30T02:48:46.286Z,72.95
2022-07-30T02:51:18.222Z,72.64
2022-07-30T02:53:46.841Z,72.50
2022-07-30T02:56:16.010Z,72.40
2022-07-30T02:58:45.710Z,73.90
2022-07-30T03:01:15.601Z,72.72
2022-07-30T03:03:46.613Z,73.37
2022-07-30T03:06:18.116Z,74.57
2022-07-30T03:08:46.315Z,74.62
2022-07-30T03:11:14.416Z,74.94
2022-07-30T03:13:41.150Z,74.33
2022-07-30T03:16:10.163Z,74.87
2022-07-30T03:18:38.682Z,75.45
2022-07-30T03:21:08.804Z,75.22
2022-07-30T03:23:37.698Z,74.52
2022-07-30T03:26:08.617Z,73.90
2022-07-30T03:28:41.947Z,73.61
2022-07-30T03:31:11.866Z,73.76
2022-07-30T03:33:39.291Z,74.54
2022-07-30T03:36:07.154Z,73.62
2022-07-30T03:38:36.695Z,74.41
2022-07-30T03:41:04.954Z,73.65
2022-07-30T03:43:33.290Z,73.28
2022-07-30T03:46:03.489Z,73.74
2022-07-30T03:48:33.481Z,74.20
2022-07-30T03:51:03.136Z,74.23
2022-07-30T03:53:30.021Z,73.50
2022-07-30T03:55:56.912Z,73.14
2022-07-30T03:58:23.570Z,74.10
2022-07-30T04:00:51.414Z,73.16
2022-07-30T04:03:28.160Z,73.78
2022-07-30T04:05:55.116Z,73.72
2022-07-30T04:08:21.795Z,73.44
2022-07-30T04:10:51.829Z,73.44
2022-07-30T04:13:18.467Z,73.61
2022-07-30T04:16:38.922Z,73.26
2022-07-30T04:18:54.792Z,74.30
2022-07-30T04:21:23.958Z,73.81
2022-07-30T04:24:03.250Z,73.65
2022-07-30T04:26:33.845Z,72.84
2022-07-30T04:29:01.571Z,73.04
2022-07-30T04:31:29.561Z,73.83
2022-07-30T04:34:02.932Z,73.71
2022-07-30T04:36:33.059Z,74.44
2022-07-30T04:39:00.190Z,73.54
2022-07-30T04:41:26.741Z,73.09
2022-07-30T04:43:53.428Z,73.71
2022-07-30T04:46:20.299Z,73.33
2022-07-30T04:48:51.526Z,73.29
2022-07-30T04:51:24.461Z,73.47
2022-07-30T04:53:53.339Z,72.91
2022-07-30T04:56:21.230Z,73.49
2022-07-30T04:58:48.338Z,73.52
2022-07-30T05:01:21.916Z,73.66
2022-07-30T05:03:51.086Z,73.42
2022-07-30T05:06:18.441Z,73.37
2022-07-30T05:08:45.577Z,74.11
2022-07-30T05:11:13.329Z,74.14
2022-07-30T05:13:48.855Z,74.69
2022-07-30T05:16:15.774Z,73.16
2022-07-30T05:18:42.963Z,73.44
2022-07-30T05:21:09.499Z,73.52
2022-07-30T05:23:36.171Z,73.91
2022-07-30T05:26:03.111Z,74.54
2022-07-30T05:28:29.777Z,74.55
2022-07-30T05:30:56.621Z,73.34
2022-07-30T05:33:23.801Z,72.63
2022-07-30T05:36:17.777Z,71.95
2022-07-30T05:38:44.639Z,73.30
2022-07-30T05:41:19.094Z,72.53
2022-07-30T05:43:57.898Z,73.19
2022-07-30T05:46:24.487Z,71.98
2022-07-30T05:48:51.085Z,73.90
2022-07-30T05:51:19.346Z,72.42
2022-07-30T05:53:45.856Z,72.40
2022-07-30T05:56:15.434Z,72.49
2022-07-30T05:58:41.925Z,71.56
2022-07-30T06:01:08.539Z,71.20
2022-07-30T06:03:35.128Z,70.84
2022-07-30T06:06:05.321Z,70.83
2022-07-30T06:08:32.157Z,71.13
2022-07-30T06:10:58.703Z,71.20
2022-07-30T06:13:25.448Z,72.29
2022-07-30T06:15:52.191Z,71.86
2022-07-30T06:18:18.773Z,70.03
2022-07-30T06:20:45.721Z,70.75
2022-07-30T06:23:12.484Z,70.73
2022-07-30T06:25:39.925Z,70.26
2022-07-30T06:28:27.376Z,69.22
2022-07-30T06:30:53.616Z,68.84
2022-07-30T06:33:20.314Z,69.36
2022-07-30T06:35:47.462Z,69.06
2022-07-30T06:38:13.964Z,68.26
2022-07-30T06:40:40.941Z,68.00
2022-07-30T06:43:07.464Z,67.79
2022-07-30T06:45:33.945Z,66.29
2022-07-30T06:48:00.767Z,66.46
2022-07-30T06:50:27.500Z,65.98
2022-07-30T06:52:54.134Z,66.66
2022-07-30T06:55:20.918Z,67.16
2022-07-30T06:57:47.509Z,65.76
2022-07-30T07:00:14.253Z,65.56
2022-07-30T07:02:42.578Z,65.12
2022-07-30T07:05:09.769Z,65.45
2022-07-30T07:07:41.874Z,65.16
2022-07-30T07:10:10.102Z,63.38
2022-07-30T07:12:36.605Z,62.50
2022-07-30T07:15:03.892Z,64.21
2022-07-30T07:17:30.425Z,62.83
2022-07-30T07:19:59.938Z,62.27
2022-07-30T07:22:28.507Z,63.08
2022-07-30T07:24:56.812Z,61.09
2022-07-30T07:27:23.939Z,61.04
2022-07-30T07:30:05.578Z,60.19
2022-07-30T07:32:34.634Z,59.34
2022-07-30T07:35:01.415Z,59.88
2022-07-30T07:37:28.038Z,60.63
2022-07-30T07:39:54.782Z,60.81
2022-07-30T07:42:22.085Z,61.17
2022-07-30T07:44:48.600Z,59.86
2022-07-30T07:47:15.387Z,59.17
2022-07-30T07:49:41.881Z,58.79
2022-07-30T07:52:08.461Z,58.87
2022-07-30T07:54:35.111Z,59.58
2022-07-30T07:57:03.060Z,59.17
2022-07-30T07:59:36.369Z,58.22
2022-07-30T08:02:08.135Z,58.52
2022-07-30T08:04:35.307Z,58.39
2022-07-30T08:07:02.207Z,57.68
2022-07-30T08:09:40.703Z,57.61
2022-07-30T08:12:11.918Z,56.00
2022-07-30T08:14:38.631Z,56.95
2022-07-30T08:17:05.652Z,56.24
2022-07-30T08:19:32.610Z,55.87
2022-07-30T08:21:59.697Z,55.79
2022-07-30T08:24:26.837Z,55.40
2022-07-30T08:26:53.397Z,54.84
2022-07-30T08:29:20.112Z,55.78
2022-07-30T08:31:46.665Z,56.05
2022-07-30T08:34:13.713Z,54.96
2022-07-30T08:36:40.599Z,54.95
2022-07-30T08:39:08.752Z,54.61
2022-07-30T08:41:36.605Z,53.76
2022-07-30T08:44:06.858Z,53.32
2022-07-30T08:46:41.026Z,52.77
2022-07-30T08:49:14.431Z,52.92
2022-07-30T08:51:41.430Z,53.16
2022-07-30T08:54:08.008Z,53.49
2022-07-30T08:56:34.782Z,52.68
2022-07-30T08:59:01.823Z,52.00
2022-07-30T09:01:28.390Z,51.04
2022-07-30T09:03:55.160Z,51.64
2022-07-30T09:06:21.807Z,50.29
2022-07-30T09:08:48.531Z,50.95
2022-07-30T09:11:15.466Z,50.89
2022-07-30T09:13:42.991Z,50.64
2022-07-30T09:16:20.230Z,50.57
2022-07-30T09:18:46.838Z,50.67
2022-07-30T09:21:19.951Z,49.74
2022-07-30T09:24:00.515Z,48.94
2022-07-30T09:26:27.192Z,49.53
2022-07-30T09:28:53.865Z,49.35
2022-07-30T09:31:22.078Z,49.56
2022-07-30T09:33:49.027Z,49.12
2022-07-30T09:36:17.945Z,48.54
2022-07-30T09:38:45.776Z,46.53
2022-07-30T09:41:29.347Z,46.18
2022-07-30T09:44:02.820Z,46.73
2022-07-30T09:46:47.563Z,47.05
2022-07-30T09:49:19.875Z,45.69
2022-07-30T09:51:54.494Z,46.55
2022-07-30T09:54:25.406Z,46.82
2022-07-30T09:57:22.814Z,48.44
2022-07-30T09:59:53.505Z,47.81
2022-07-30T10:02:28.352Z,47.48
2022-07-30T10:04:55.284Z,47.21
2022-07-30T10:07:25.625Z,46.29
2022-07-30T10:09:54.295Z,46.40
2022-07-30T10:12:24.151Z,46.17
2022-07-30T10:14:53.555Z,45.02
2022-07-30T10:17:21.990Z,45.38
2022-07-30T10:19:49.069Z,45.07
2022-07-30T10:22:17.095Z,45.90
2022-07-30T10:24:45.247Z,44.99
2022-07-30T10:27:12.942Z,44.77
2022-07-30T10:29:42.768Z,44.69
2022-07-30T10:32:09.669Z,44.39
2022-07-30T10:34:38.182Z,44.14
2022-07-30T10:37:10.880Z,43.87
2022-07-30T10:40:14.355Z,43.40
2022-07-30T10:43:07.657Z,42.73
2022-07-30T10:45:59.662Z,42.87
2022-07-30T10:48:33.618Z,44.14
2022-07-30T10:51:01.211Z,43.04
2022-07-30T10:53:36.720Z,42.60
2022-07-30T10:56:25.511Z,42.86
2022-07-30T10:59:08.151Z,41.76
2022-07-30T11:01:48.695Z,44.01
2022-07-30T11:04:20.470Z,39.63
2022-07-30T11:06:47.733Z,41.10
2022-07-30T11:09:41.009Z,42.38
2022-07-30T11:12:12.593Z,41.10
2022-07-30T11:14:48.359Z,42.06
2022-07-30T11:17:16.950Z,40.53
2022-07-30T11:20:02.410Z,39.46
2022-07-30T11:22:39.073Z,39.51
2022-07-30T11:25:27.577Z,40.00
2022-07-30T11:28:40.670Z,39.38
2022-07-30T11:31:56.687Z,40.70
2022-07-30T11:34:18.565Z,37.94
2022-07-30T11:37:21.609Z,39.30
2022-07-30T11:39:55.295Z,38.03
2022-07-30T11:42:33.611Z,38.68
2022-07-30T11:45:20.653Z,39.45
2022-07-30T11:47:56.558Z,38.55
2022-07-30T11:50:30.192Z,39.00
2022-07-30T11:53:25.067Z,37.95
2022-07-30T11:56:04.693Z,39.37
2022-07-30T11:58:33.048Z,37.64
2022-07-30T12:01:09.071Z,37.58
2022-07-30T12:03:40.654Z,38.36
2022-07-30T12:06:10.038Z,37.90
2022-07-30T12:08:42.250Z,39.02
2022-07-30T12:11:09.524Z,38.95
2022-07-30T12:13:43.914Z,38.02
2022-07-30T12:16:18.521Z,38.66
2022-07-30T12:18:46.703Z,37.52
2022-07-30T12:21:17.107Z,37.65
2022-07-30T12:24:06.692Z,38.24
2022-07-30T12:26:34.751Z,37.04
2022-07-30T12:29:10.066Z,36.55
2022-07-30T12:31:38.355Z,36.19
2022-07-30T12:34:05.402Z,36.57
2022-07-30T12:36:34.548Z,37.87
2022-07-30T12:39:02.777Z,37.39
2022-07-30T12:41:47.690Z,41.05
2022-07-30T12:44:44.918Z,40.45
2022-07-30T12:47:27.500Z,38.73
2022-07-30T12:49:56.477Z,38.24
2022-07-30T12:52:28.699Z,38.33
2022-07-30T12:55:09.240Z,39.52
2022-07-30T12:58:07.679Z,39.46
2022-07-30T13:00:43.677Z,37.66
2022-07-30T13:03:24.830Z,37.02
2022-07-30T13:05:55.555Z,37.74
2022-07-30T13:08:46.109Z,36.63
2022-07-30T13:11:13.651Z,37.66
2022-07-30T13:13:40.332Z,37.68
2022-07-30T13:16:07.909Z,36.94
2022-07-30T13:18:36.373Z,36.87
2022-07-30T13:21:04.628Z,36.87
2022-07-30T13:23:31.396Z,35.70
2022-07-30T13:25:58.139Z,36.44
2022-07-30T13:28:25.541Z,36.54
2022-07-30T13:30:52.422Z,36.83
2022-07-30T13:33:19.107Z,35.30
2022-07-30T13:35:45.596Z,36.71
2022-07-30T13:38:13.716Z,35.27
2022-07-30T13:40:40.391Z,35.98
2022-07-30T13:43:07.661Z,34.42
2022-07-30T13:45:40.092Z,35.08
2022-07-30T13:48:07.251Z,35.01
2022-07-30T13:50:33.775Z,34.01
2022-07-30T13:53:02.532Z,33.97
2022-07-30T13:55:29.470Z,34.79
2022-07-30T13:57:56.246Z,33.65
2022-07-30T14:00:23.145Z,34.70
2022-07-30T14:02:49.749Z,34.77
2022-07-30T14:05:16.420Z,35.02
2022-07-30T14:07:43.154Z,35.01
2022-07-30T14:10:12.236Z,34.72
2022-07-30T14:12:41.189Z,35.31
2022-07-30T14:15:14.976Z,35.09
2022-07-30T14:17:44.355Z,34.68
2022-07-30T14:20:24.161Z,34.60
2022-07-30T14:22:51.178Z,34.65
2022-07-30T14:25:17.938Z,35.27
2022-07-30T14:27:44.870Z,35.10
2022-07-30T14:30:14.954Z,34.53
2022-07-30T14:32:41.673Z,34.45
2022-07-30T14:35:10.387Z,35.31
2022-07-30T14:37:40.795Z,34.69
2022-07-30T14:40:12.005Z,35.20
2022-07-30T14:42:40.073Z,34.42
2022-07-30T14:45:10.392Z,34.55
2022-07-30T14:47:37.531Z,33.48
2022-07-30T14:50:04.732Z,33.52
2022-07-30T14:52:34.995Z,34.33
2022-07-30T14:55:03.849Z,35.52
2022-07-30T14:57:33.402Z,33.96
2022-07-30T15:00:00.579Z,34.56
2022-07-30T15:02:27.280Z,35.53
2022-07-30T15:04:53.845Z,34.55
2022-07-30T15:07:20.366Z,36.32
2022-07-30T15:09:47.062Z,36.23
2022-07-30T15:12:23.493Z,36.64
2022-07-30T15:14:50.867Z,35.39
2022-07-30T15:17:19.010Z,35.90
2022-07-30T15:19:50.603Z,35.33
2022-07-30T15:22:19.397Z,34.81
2022-07-30T15:24:46.256Z,35.26
2022-07-30T15:27:12.817Z,35.76
2022-07-30T15:29:39.422Z,34.63
2022-07-30T15:32:06.469Z,35.09
2022-07-30T15:34:34.525Z,33.40
2022-07-30T15:37:05.387Z,32.42
2022-07-30T15:39:33.092Z,33.29
2022-07-30T15:42:01.790Z,33.68
2022-07-30T15:44:28.675Z,34.42
2022-07-30T15:46:55.225Z,34.20
2022-07-30T15:49:21.849Z,33.44
2022-07-30T15:51:49.034Z,32.96
2022-07-30T15:54:22.396Z,34.95
2022-07-30T15:56:49.762Z,34.58
2022-07-30T15:59:16.372Z,34.00
2022-07-30T16:01:43.989Z,33.89
2022-07-30T16:04:19.499Z,33.70
2022-07-30T16:06:47.999Z,33.09
2022-07-30T16:09:15.979Z,31.76
2022-07-30T16:11:43.072Z,32.35
2022-07-30T16:14:09.634Z,32.68
2022-07-30T16:16:36.606Z,31.82
2022-07-30T16:19:03.132Z,31.30
2022-07-30T16:21:30.235Z,30.93
2022-07-30T16:23:56.989Z,32.28
2022-07-30T16:26:23.474Z,32.63
2022-07-30T16:28:50.581Z,32.84
2022-07-30T16:31:17.704Z,33.27
2022-07-30T16:33:46.291Z,33.75
2022-07-30T16:36:14.425Z,33.89
2022-07-30T16:38:41.360Z,34.09
2022-07-30T16:41:13.224Z,34.89
2022-07-30T16:43:41.154Z,35.07
2022-07-30T16:46:07.895Z,36.16
2022-07-30T16:48:34.672Z,36.09
2022-07-30T16:51:01.280Z,35.40
2022-07-30T16:53:28.532Z,36.23
2022-07-30T16:55:56.917Z,36.93
2022-07-30T16:58:28.308Z,36.97
2022-07-30T17:00:57.708Z,38.34
2022-07-30T17:03:25.430Z,37.90
2022-07-30T17:05:52.251Z,38.83
2022-07-30T17:08:19.166Z,39.09
2022-07-30T17:10:52.012Z,37.62
2022-07-30T17:13:18.585Z,38.75
2022-07-30T17:15:46.806Z,39.20
2022-07-30T17:18:13.675Z,38.78
2022-07-30T17:20:40.389Z,38.83
2022-07-30T17:23:07.780Z,40.34
2022-07-30T17:25:34.474Z,39.65
2022-07-30T17:28:01.659Z,39.99
2022-07-30T17:30:29.043Z,39.64
2022-07-30T17:32:56.353Z,41.02
2022-07-30T17:35:24.659Z,39.77
2022-07-30T17:37:51.489Z,39.99
2022-07-30T17:40:30.342Z,41.14
2022-07-30T17:43:03.716Z,40.81
2022-07-30T17:45:32.496Z,41.13
2022-07-30T17:48:01.399Z,40.90
2022-07-30T17:50:28.234Z,40.51
2022-07-30T17:52:54.793Z,41.00
2022-07-30T17:55:21.712Z,40.86
2022-07-30T17:57:48.256Z,40.64
2022-07-30T18:00:15.423Z,40.65
2022-07-30T18:02:42.103Z,40.92
2022-07-30T18:05:10.601Z,41.75
2022-07-30T18:07:37.654Z,41.26
2022-07-30T18:10:04.644Z,41.56
2022-07-30T18:12:31.304Z,42.23
2022-07-30T18:14:59.114Z,41.58
2022-07-30T18:17:25.826Z,43.16
2022-07-30T18:19:52.583Z,42.75
2022-07-30T18:22:29.171Z,42.20
2022-07-30T18:24:57.452Z,42.62
2022-07-30T18:27:24.016Z,43.32
2022-07-30T18:29:50.588Z,43.01
2022-07-30T18:32:17.264Z,42.72
2022-07-30T18:34:44.312Z,43.79
2022-07-30T18:37:10.914Z,44.27
2022-07-30T18:39:37.811Z,44.41
2022-07-30T18:42:04.924Z,44.35
2022-07-30T18:44:33.731Z,44.57
2022-07-30T18:47:00.641Z,44.78
2022-07-30T18:49:38.166Z,44.75
2022-07-30T18:52:07.843Z,44.63
2022-07-30T18:54:35.821Z,44.76
2022-07-30T18:57:02.755Z,45.28
2022-07-30T18:59:29.353Z,44.95
2022-07-30T19:01:56.069Z,45.21
2022-07-30T19:04:23.070Z,45.62
2022-07-30T19:06:49.756Z,45.28
2022-07-30T19:09:18.009Z,45.39
2022-07-30T19:11:47.886Z,45.14
2022-07-30T19:14:15.395Z,45.46
2022-07-30T19:16:43.422Z,45.61
2022-07-30T19:19:12.797Z,45.58
2022-07-30T19:21:40.870Z,46.07
2022-07-30T19:24:08.748Z,46.35
2022-07-30T19:26:38.967Z,46.58
2022-07-30T19:29:10.383Z,46.84
2022-07-30T19:31:37.028Z,47.25
2022-07-30T19:34:04.076Z,47.22
2022-07-30T19:36:31.066Z,47.15
2022-07-30T19:39:06.941Z,47.68
2022-07-30T19:41:40.569Z,47.36
2022-07-30T19:44:09.125Z,47.50
2022-07-30T19:46:36.366Z,47.92
2022-07-30T19:49:03.168Z,47.96
2022-07-30T19:52:07.316Z,48.18
2022-07-30T19:54:20.005Z,48.06
2022-07-30T19:56:46.763Z,48.16
2022-07-30T19:59:15.145Z,48.17
2022-07-30T20:01:43.016Z,48.10
2022-07-30T20:04:11.108Z,48.22
2022-07-30T20:06:39.931Z,48.41
2022-07-30T20:09:15.006Z,48.03
2022-07-30T20:11:43.336Z,47.75
2022-07-30T20:14:10.343Z,48.18
2022-07-30T20:16:37.289Z,47.86
2022-07-30T20:19:04.682Z,47.79
2022-07-30T20:21:55.939Z,48.68
2022-07-30T20:24:20.256Z,48.52
2022-07-30T20:26:47.589Z,48.74
2022-07-30T20:29:18.896Z,47.92
2022-07-30T20:31:46.157Z,47.93
2022-07-30T20:34:16.206Z,47.98
2022-07-30T20:36:44.695Z,48.46
2022-07-30T20:39:13.539Z,49.08
2022-07-30T20:41:45.012Z,49.34
2022-07-30T20:44:14.949Z,48.82
2022-07-30T20:46:50.424Z,48.93
2022-07-30T20:49:23.640Z,48.67
2022-07-30T20:51:55.804Z,47.90
2022-07-30T20:54:22.456Z,47.90
2022-07-30T20:56:50.890Z,47.74
2022-07-30T20:59:18.466Z,47.87
2022-07-30T21:01:50.457Z,48.12
2022-07-30T21:04:23.756Z,48.00
2022-07-30T21:06:52.503Z,48.07
2022-07-30T21:09:19.270Z,47.77
2022-07-30T21:11:50.394Z,47.79
2022-07-30T21:14:19.932Z,47.70
2022-07-30T21:16:47.441Z,47.92
2022-07-30T21:19:16.453Z,48.06
2022-07-30T21:21:48.297Z,48.26
2022-07-30T21:24:18.628Z,48.38
2022-07-30T21:26:48.610Z,48.90
2022-07-30T21:29:16.246Z,48.93
2022-07-30T21:32:01.343Z,49.18
2022-07-30T21:34:35.171Z,49.18
2022-07-30T21:37:07.344Z,49.64
2022-07-30T21:39:39.674Z,49.54
2022-07-30T21:42:10.334Z,49.80
2022-07-30T21:44:38.383Z,49.99
2022-07-30T21:47:10.081Z,49.79
2022-07-30T21:49:37.384Z,50.26
2022-07-30T21:52:04.531Z,50.05
2022-07-30T21:54:33.937Z,50.34
2022-07-30T21:57:12.581Z,50.52
2022-07-30T21:59:40.306Z,50.65
2022-07-30T22:02:06.978Z,50.71
2022-07-30T22:04:45.643Z,50.58
2022-07-30T22:07:14.145Z,50.87
2022-07-30T22:09:40.984Z,51.01
2022-07-30T22:12:10.281Z,50.89
2022-07-30T22:14:39.627Z,51.01
2022-07-30T22:17:06.186Z,50.89
2022-07-30T22:19:49.499Z,51.29
2022-07-30T22:22:26.820Z,51.10
2022-07-30T22:24:57.339Z,51.45
2022-07-30T22:27:25.087Z,51.32
2022-07-30T22:29:55.561Z,51.29
2022-07-30T22:32:23.259Z,51.37
2022-07-30T22:34:50.875Z,51.36
2022-07-30T22:37:21.251Z,51.32
2022-07-30T22:39:51.085Z,51.37
2022-07-30T22:42:20.421Z,51.46
2022-07-30T22:44:50.749Z,51.61
2022-07-30T22:47:19.099Z,51.35
2022-07-30T22:49:56.132Z,51.42
2022-07-30T22:52:27.670Z,51.25
2022-07-30T22:54:55.225Z,51.58
2022-07-30T22:57:23.025Z,51.90
2022-07-30T22:59:58.574Z,51.82
2022-07-30T23:02:27.893Z,51.88
2022-07-30T23:04:54.734Z,52.13
2022-07-30T23:07:23.349Z,52.52
2022-07-30T23:09:51.816Z,52.75
2022-07-30T23:12:20.177Z,52.37
2022-07-30T23:14:47.330Z,52.60
2022-07-30T23:17:13.822Z,52.54
2022-07-30T23:19:40.641Z,52.82
2022-07-30T23:22:07.226Z,52.73
2022-07-30T23:24:33.735Z,52.80
2022-07-30T23:27:00.650Z,53.02
2022-07-30T23:29:28.607Z,52.91
2022-07-30T23:31:55.502Z,52.71
2022-07-30T23:34:22.328Z,52.85
2022-07-30T23:36:48.953Z,52.90
2022-07-30T23:39:15.458Z,52.91
2022-07-30T23:41:42.100Z,52.98
2022-07-30T23:44:08.569Z,52.71
2022-07-30T23:46:37.059Z,53.50
2022-07-30T23:49:04.906Z,53.95
2022-07-30T23:51:33.205Z,53.93
2022-07-30T23:54:00.805Z,53.94
2022-07-30T23:56:27.453Z,53.88
2022-07-30T23:58:54.626Z,54.47
